Time;durP1;ratioP1;P1;durP2;ratioP2;P2;SDS_P1;SDS_P2;PMS_P1;PMS_P2;Temp;Humidity;BMP_temperature;BMP_pressure;BME280_temperature;BME280_humidity;BME280_pressure;Samples;Min_cycle;Max_cycle;Signal;HPM_P1;HPM_P2
2021/12/05 00:23:08;;;;;;;24.17;4.17;;;;;;;-145.19;100.00;57938.22;5088559;28;20605;-67
2021/12/05 00:25:34;;;;;;;17.07;4.00;;;;;;;-145.19;100.00;57938.22;5089581;28;20264;-67
2021/12/05 01:15:55;;;;;;;18.08;4.28;;;;;;;-145.19;100.00;57938.22;5088446;28;20271;-67
2021/12/05 01:18:21;;;;;;;17.17;4.90;;;;;;;-145.19;100.00;57938.22;5087930;28;20058;-67
2021/12/05 01:20:55;;;;;;;13.03;3.50;;;;;;;-145.19;100.00;57938.22;5087761;28;20261;-67
2021/12/05 01:58:46;;;;;;;25.40;4.20;;;;;;;-145.19;100.00;57938.22;5087175;28;20295;-67
2021/12/05 02:12:04;;;;;;;19.83;3.53;;;;;;;-145.19;100.00;57938.22;5067199;28;20269;-67
2021/12/05 02:34:24;;;;;;;24.07;3.10;;;;;;;-145.19;100.00;57938.22;5066515;28;20314;-67
2021/12/05 02:40:04;;;;;;;18.30;2.90;;;;;;;-145.19;100.00;57938.22;5021568;28;20274;-67
2021/12/05 02:42:36;;;;;;;21.03;3.13;;;;;;;-145.19;100.00;57938.22;5066803;28;20258;-67
2021/12/05 02:45:06;;;;;;;16.03;3.47;;;;;;;-145.19;100.00;57938.22;5066904;28;20265;-67
2021/12/05 02:47:32;;;;;;;29.90;3.50;;;;;;;-145.19;100.00;57938.22;5066772;28;20258;-67
2021/12/05 02:50:00;;;;;;;14.33;2.90;;;;;;;-145.19;100.00;57938.22;5066698;28;20270;-67
2021/12/05 02:52:37;;;;;;;18.13;3.00;;;;;;;-145.19;100.00;57938.22;5066666;28;20301;-67
2021/12/05 02:55:11;;;;;;;15.47;3.20;;;;;;;-145.19;100.00;57938.22;5048350;28;20793;-67
2021/12/05 03:00:12;;;;;;;15.33;3.40;;;;;;;-145.19;100.00;57938.22;5066580;28;20276;-67
2021/12/05 03:02:41;;;;;;;16.13;3.10;;;;;;;-145.19;100.00;57938.22;5066520;28;20762;-67
2021/12/05 03:05:11;;;;;;;15.73;3.13;;;;;;;-145.19;100.00;57938.22;5048972;28;20996;-67
2021/12/05 03:07:40;;;;;;;19.10;3.57;;;;;;;-145.19;100.00;57938.22;5066300;28;20586;-67
2021/12/05 03:10:09;;;;;;;17.57;3.70;;;;;;;-145.19;100.00;57938.22;5066301;28;20796;-67
2021/12/05 03:12:35;;;;;;;16.80;2.80;;;;;;;-145.19;100.00;57938.22;5066660;28;20282;-67
2021/12/05 03:15:07;;;;;;;13.20;3.00;;;;;;;-145.19;100.00;57938.22;5066348;28;20761;-67
2021/12/05 03:17:33;;;;;;;12.00;3.57;;;;;;;-145.19;100.00;57938.22;5066497;28;20293;-67
2021/12/05 03:19:59;;;;;;;17.67;3.03;;;;;;;-145.19;100.00;57938.22;5066513;28;20301;-67
2021/12/05 03:22:24;;;;;;;12.60;3.03;;;;;;;-145.19;100.00;57938.22;5048095;28;20048;-67
2021/12/05 03:24:50;;;;;;;20.47;3.97;;;;;;;-145.19;100.00;57938.22;5066069;28;20043;-67
2021/12/05 03:27:15;;;;;;;16.47;3.47;;;;;;;-145.19;100.00;57938.22;5066806;28;20037;-67
2021/12/05 03:29:41;;;;;;;16.70;3.73;;;;;;;-145.19;100.00;57938.22;5048334;28;20040;-67
2021/12/05 03:32:07;;;;;;;24.43;4.07;;;;;;;-145.19;100.00;57938.22;5065552;28;20033;-67
2021/12/05 03:34:33;;;;;;;17.47;4.10;;;;;;;-145.19;100.00;57938.22;5066306;28;20029;-67
2021/12/05 03:36:59;;;;;;;27.33;4.93;;;;;;;-145.19;100.00;57938.22;5066198;28;20040;-68
2021/12/05 03:39:27;;;;;;;14.03;3.73;;;;;;;-145.19;100.00;57938.22;5065887;28;20280;-68
2021/12/05 03:41:53;;;;;;;33.67;5.33;;;;;;;-145.19;100.00;57938.22;5066919;28;20281;-67
2021/12/05 03:44:20;;;;;;;15.00;4.13;;;;;;;-145.19;100.00;57938.22;5066049;28;20724;-67
2021/12/05 03:46:49;;;;;;;14.67;4.57;;;;;;;-145.19;100.00;57938.22;5066246;28;20285;-68
2021/12/05 03:49:15;;;;;;;16.10;3.97;;;;;;;-145.19;100.00;57938.22;5069310;28;20900;-67
2021/12/05 03:51:46;;;;;;;20.13;4.03;;;;;;;-145.19;100.00;57938.22;5070074;28;20357;-67
2021/12/05 03:54:12;;;;;;;14.10;3.80;;;;;;;-145.19;100.00;57938.22;5069454;28;20037;-68
2021/12/05 03:56:38;;;;;;;16.33;4.10;;;;;;;-145.19;100.00;57938.22;5069777;28;20285;-67
2021/12/05 03:59:05;;;;;;;11.53;3.60;;;;;;;-145.19;100.00;57938.22;5069383;28;20433;-67
2021/12/05 04:01:31;;;;;;;15.20;3.57;;;;;;;-145.19;100.00;57938.22;5069814;28;20634;-68
2021/12/05 04:03:56;;;;;;;19.33;3.83;;;;;;;-145.19;100.00;57938.22;5070033;28;20269;-67
2021/12/05 04:06:25;;;;;;;24.03;4.03;;;;;;;-145.19;100.00;57938.22;5069565;28;20041;-68
2021/12/05 04:08:52;;;;;;;20.60;5.10;;;;;;;-145.19;100.00;57938.22;5069545;28;20043;-67
2021/12/05 04:11:27;;;;;;;17.07;3.70;;;;;;;-145.19;100.00;57938.22;5051127;28;20266;-67
2021/12/05 04:13:53;;;;;;;10.13;2.92;;;;;;;-145.19;100.00;57938.22;5069411;28;20326;-67
2021/12/05 04:16:19;;;;;;;18.70;4.87;;;;;;;-145.19;100.00;57938.22;5069126;28;20491;-67
2021/12/05 04:18:46;;;;;;;18.57;4.50;;;;;;;-145.19;100.00;57938.22;5069412;28;20032;-68
2021/12/05 04:21:12;;;;;;;18.37;4.80;;;;;;;-145.19;100.00;57938.22;5068941;28;20283;-67
2021/12/05 04:23:38;;;;;;;15.30;4.20;;;;;;;-145.19;100.00;57938.22;5069006;28;20262;-68
2021/12/05 04:26:04;;;;;;;15.03;3.67;;;;;;;-145.19;100.00;57938.22;5069738;28;20284;-67
2021/12/05 04:28:30;;;;;;;12.20;3.87;;;;;;;-145.19;100.00;57938.22;5069390;28;20046;-68
2021/12/05 04:30:55;;;;;;;17.17;4.03;;;;;;;-145.19;100.00;57938.22;5069328;28;20024;-67
2021/12/05 04:33:21;;;;;;;8.70;3.83;;;;;;;-145.19;100.00;57938.22;5068770;28;20094;-67
2021/12/05 04:35:47;;;;;;;17.53;3.77;;;;;;;-145.19;100.00;57938.22;5068951;28;20036;-67
2021/12/05 04:38:13;;;;;;;13.70;4.47;;;;;;;-145.19;100.00;57938.22;5068920;28;20048;-67
2021/12/05 04:40:39;;;;;;;14.30;4.53;;;;;;;-145.19;100.00;57938.22;5069124;28;20074;-68
2021/12/05 04:43:05;;;;;;;17.33;5.13;;;;;;;-145.19;100.00;57938.22;5068826;28;20098;-67
2021/12/05 04:45:33;;;;;;;12.13;4.87;;;;;;;-145.19;100.00;57938.22;5068972;28;20257;-67
2021/12/05 04:48:00;;;;;;;13.53;4.90;;;;;;;-145.19;100.00;57938.22;5068750;28;20277;-67
2021/12/05 04:50:27;;;;;;;12.80;5.30;;;;;;;-145.19;100.00;57938.22;5069103;28;20328;-67
2021/12/05 04:52:54;;;;;;;14.40;6.17;;;;;;;-145.19;100.00;57938.22;5068771;28;20780;-67
2021/12/05 04:55:20;;;;;;;14.80;5.03;;;;;;;-145.19;100.00;57938.22;5068444;28;20269;-67
2021/12/05 04:57:46;;;;;;;12.50;5.60;;;;;;;-145.19;100.00;57938.22;5068482;28;20365;-67
2021/12/05 05:00:34;;;;;;;9.43;5.23;;;;;;;-145.19;100.00;57938.22;5069033;28;20360;-67
2021/12/05 05:03:00;;;;;;;15.10;6.23;;;;;;;-145.19;100.00;57938.22;5068529;28;20406;-67
2021/12/05 05:05:27;;;;;;;15.20;7.10;;;;;;;-145.19;100.00;57938.22;5068753;28;20272;-67
2021/12/05 05:07:53;;;;;;;15.03;7.33;;;;;;;-145.19;100.00;57938.22;5068417;28;20033;-67
2021/12/05 05:10:25;;;;;;;16.10;6.70;;;;;;;-145.19;100.00;57938.22;5068169;28;20258;-67
2021/12/05 05:12:51;;;;;;;16.57;7.27;;;;;;;-145.19;100.00;57938.22;5068496;28;20360;-67
2021/12/05 05:15:22;;;;;;;12.17;6.60;;;;;;;-145.19;100.00;57938.22;5067931;28;20353;-67
2021/12/05 05:17:50;;;;;;;12.90;7.00;;;;;;;-145.19;100.00;57938.22;5068340;28;20405;-67
2021/12/05 05:20:34;;;;;;;15.17;7.97;;;;;;;-145.19;100.00;57938.22;5068092;28;20270;-67
2021/12/05 05:46:39;;;;;;;21.40;9.40;;;;;;;-145.19;100.00;57938.22;5086491;28;20545;-67
2021/12/05 05:51:39;;;;;;;17.07;9.00;;;;;;;-145.19;100.00;57938.22;5087750;28;20257;-67
2021/12/05 05:54:04;;;;;;;15.70;9.93;;;;;;;-145.19;100.00;57938.22;5087342;28;20632;-67
2021/12/05 05:56:32;;;;;;;16.10;9.23;;;;;;;-145.19;100.00;57938.22;5069911;28;20040;-67
2021/12/05 05:59:06;;;;;;;15.50;10.13;;;;;;;-145.19;100.00;57938.22;5087626;28;20040;-67
2021/12/05 06:04:02;;;;;;;15.50;9.27;;;;;;;-145.19;100.00;57938.22;5087530;28;20284;-67
2021/12/05 06:06:28;;;;;;;16.70;9.77;;;;;;;-145.19;100.00;57938.22;5087770;28;20269;-67
2021/12/05 06:08:53;;;;;;;16.27;9.67;;;;;;;-145.19;100.00;57938.22;5068946;28;20713;-67
2021/12/05 06:11:19;;;;;;;15.17;9.83;;;;;;;-145.19;100.00;57938.22;5076339;28;20301;-67
2021/12/05 06:13:46;;;;;;;16.17;9.50;;;;;;;-145.19;100.00;57938.22;5077266;28;20036;-67
2021/12/05 06:16:13;;;;;;;16.27;9.20;;;;;;;-145.19;100.00;57938.22;5086602;28;20475;-67
2021/12/05 06:18:39;;;;;;;14.50;9.13;;;;;;;-145.19;100.00;57938.22;5086000;28;20321;-67
2021/12/05 06:21:06;;;;;;;15.43;10.07;;;;;;;-145.19;100.00;57938.22;5086016;28;20275;-67
2021/12/05 06:23:32;;;;;;;19.83;9.67;;;;;;;-145.19;100.00;57938.22;5086465;28;20840;-67
2021/12/05 06:25:58;;;;;;;17.40;9.90;;;;;;;-145.19;100.00;57938.22;5086788;28;20277;-67
2021/12/05 06:28:33;;;;;;;19.60;11.37;;;;;;;-145.19;100.00;57938.22;5086892;28;20369;-68
2021/12/05 06:32:20;;;;;;;14.07;10.00;;;;;;;-145.19;100.00;57938.22;5101590;28;20268;-67
2021/12/05 06:47:28;;;;;;;17.27;11.23;;;;;;;-145.19;100.00;57938.22;5086937;28;20317;-68
2021/12/05 06:49:55;;;;;;;17.97;12.07;;;;;;;-145.19;100.00;57938.22;5086728;28;21215;-67
2021/12/05 06:52:21;;;;;;;19.50;11.40;;;;;;;-145.19;100.00;57938.22;5086555;28;20265;-68
2021/12/05 06:54:47;;;;;;;20.33;11.30;;;;;;;-145.19;100.00;57938.22;5086527;28;20287;-68
2021/12/05 06:57:12;;;;;;;17.90;11.27;;;;;;;-145.19;100.00;57938.22;5086603;28;20269;-68
2021/12/05 06:59:41;;;;;;;16.70;11.60;;;;;;;-145.19;100.00;57938.22;5086479;28;20035;-68
2021/12/05 07:02:09;;;;;;;15.93;10.73;;;;;;;-145.19;100.00;57938.22;5087295;28;20161;-68
2021/12/05 07:07:36;;;;;;;24.77;11.43;;;;;;;-145.19;100.00;57938.22;5030083;28;20264;-68
2021/12/05 07:10:05;;;;;;;22.60;11.17;;;;;;;-145.19;100.00;57938.22;5086183;28;20292;-68
2021/12/05 07:21:06;;;;;;;17.00;10.53;;;;;;;-145.19;100.00;57938.22;5086707;28;20059;-68
2021/12/05 07:26:14;;;;;;;15.17;10.83;;;;;;;-145.19;100.00;57938.22;5073043;28;20344;-68
2021/12/05 07:42:23;;;;;;;16.07;9.90;;;;;;;-145.19;100.00;57938.22;5082101;28;20276;-68
2021/12/05 07:44:50;;;;;;;15.30;9.93;;;;;;;-145.19;100.00;57938.22;5087131;28;20334;-68
2021/12/05 07:47:19;;;;;;;16.07;10.73;;;;;;;-145.19;100.00;57938.22;5084557;28;20361;-68
2021/12/05 07:49:45;;;;;;;19.87;10.27;;;;;;;-145.19;100.00;57938.22;5077435;28;20273;-68
2021/12/05 07:52:16;;;;;;;16.77;10.93;;;;;;;-145.19;100.00;57938.22;5081137;28;20779;-68
2021/12/05 07:54:46;;;;;;;15.67;10.73;;;;;;;-145.19;100.00;57938.22;5081428;28;20276;-68
2021/12/05 08:16:10;;;;;;;15.87;10.87;;;;;;;-145.19;100.00;57938.22;5087294;28;20374;-68
2021/12/05 08:18:36;;;;;;;18.33;10.73;;;;;;;-145.19;100.00;57938.22;5085857;28;20261;-67
2021/12/05 08:21:04;;;;;;;18.67;11.20;;;;;;;-145.19;100.00;57938.22;5087958;28;20281;-67
2021/12/05 08:23:30;;;;;;;18.13;11.20;;;;;;;-145.19;100.00;57938.22;5085271;28;20844;-67
2021/12/05 08:26:20;;;;;;;19.33;10.73;;;;;;;-145.19;100.00;57938.22;5088187;28;20277;-67
2021/12/05 08:40:14;;;;;;;22.30;12.53;;;;;;;-145.19;100.00;57938.22;5067083;28;20824;-67
2021/12/05 09:23:05;;;;;;;22.67;13.67;;;;;;;-145.19;100.00;57938.22;5060049;28;20835;-67
2021/12/05 09:30:55;;;;;;;21.30;13.10;;;;;;;-145.19;100.00;57938.22;5062483;28;20286;-67
2021/12/05 10:14:34;;;;;;;18.53;11.83;;;;;;;-145.19;100.00;57938.22;5086662;28;20261;-68
2021/12/05 10:34:12;;;;;;;28.17;14.23;;;;;;;-145.19;100.00;57938.22;5087357;28;20349;-67
2021/12/05 10:36:39;;;;;;;26.80;15.27;;;;;;;-145.19;100.00;57938.22;5086522;28;20269;-67
2021/12/05 10:39:10;;;;;;;25.67;15.07;;;;;;;-145.19;100.00;57938.22;5085816;28;20287;-67
2021/12/05 10:44:10;;;;;;;26.77;15.43;;;;;;;-145.19;100.00;57938.22;5086104;28;20342;-68
2021/12/05 10:46:39;;;;;;;24.83;14.03;;;;;;;-145.19;100.00;57938.22;5086398;28;20267;-68
2021/12/05 10:49:11;;;;;;;25.33;14.40;;;;;;;-145.19;100.00;57938.22;5086714;28;20284;-68
2021/12/05 10:51:43;;;;;;;26.03;15.13;;;;;;;-145.19;100.00;57938.22;5086736;28;20269;-67
2021/12/05 10:54:12;;;;;;;27.90;14.17;;;;;;;-145.19;100.00;57938.22;5067565;28;20768;-68
2021/12/05 10:56:41;;;;;;;21.83;12.77;;;;;;;-145.19;100.00;57938.22;5085506;28;20319;-67
2021/12/05 10:59:21;;;;;;;20.77;12.50;;;;;;;-145.19;100.00;57938.22;5066822;28;20265;-68
2021/12/05 11:01:55;;;;;;;22.63;13.20;;;;;;;-145.19;100.00;57938.22;5066246;28;20265;-68
2021/12/05 11:04:23;;;;;;;22.70;13.50;;;;;;;-145.19;100.00;57938.22;5067209;28;20344;-68
2021/12/05 11:06:57;;;;;;;24.13;12.87;;;;;;;-145.19;100.00;57938.22;5084372;28;20317;-68
2021/12/05 11:09:38;;;;;;;21.03;13.87;;;;;;;-145.19;100.00;57938.22;5067748;28;20372;-68
2021/12/05 11:12:03;;;;;;;22.07;14.07;;;;;;;-145.19;100.00;57938.22;5086376;28;20296;-68
2021/12/05 11:14:35;;;;;;;21.23;13.37;;;;;;;-145.19;100.00;57938.22;5068473;28;20367;-67
2021/12/05 11:17:08;;;;;;;24.03;13.87;;;;;;;-145.19;100.00;57938.22;5085721;28;20063;-68
2021/12/05 11:19:42;;;;;;;25.23;14.23;;;;;;;-145.19;100.00;57938.22;5084209;28;20749;-68
2021/12/05 11:22:16;;;;;;;20.03;12.67;;;;;;;-145.19;100.00;57938.22;5081708;28;20326;-68
2021/12/05 11:24:49;;;;;;;21.37;13.23;;;;;;;-145.19;100.00;57938.22;5079300;28;20288;-68
2021/12/05 11:27:22;;;;;;;21.97;13.70;;;;;;;-145.19;100.00;57938.22;5085968;28;20311;-68
2021/12/05 11:29:54;;;;;;;24.27;13.13;;;;;;;-145.19;100.00;57938.22;5086075;28;20268;-68
2021/12/05 11:32:37;;;;;;;22.27;12.67;;;;;;;-145.19;100.00;57938.22;5086375;28;20280;-68
2021/12/05 11:35:37;;;;;;;21.93;13.47;;;;;;;-145.19;100.00;57938.22;5085980;28;20384;-68
2021/12/05 11:38:25;;;;;;;23.93;13.23;;;;;;;-145.19;100.00;57938.22;5066369;28;20348;-68
2021/12/05 11:41:06;;;;;;;23.77;13.97;;;;;;;-145.19;100.00;57938.22;5051909;28;20261;-67
2021/12/05 11:43:33;;;;;;;23.30;14.10;;;;;;;-145.19;100.00;57938.22;5065219;28;20807;-68
2021/12/05 11:46:14;;;;;;;21.80;12.97;;;;;;;-145.19;100.00;57938.22;5065648;28;20786;-68
2021/12/05 11:48:53;;;;;;;21.43;13.47;;;;;;;-145.19;100.00;57938.22;5065950;28;20309;-68
2021/12/05 11:51:21;;;;;;;22.30;12.63;;;;;;;-145.19;100.00;57938.22;5065092;28;20286;-68
2021/12/05 11:53:58;;;;;;;21.93;13.27;;;;;;;-145.19;100.00;57938.22;5065654;28;20277;-68
2021/12/05 11:56:29;;;;;;;24.77;14.10;;;;;;;-145.19;100.00;57938.22;5065612;28;20277;-67
2021/12/05 11:59:36;;;;;;;21.93;13.20;;;;;;;-145.19;100.00;57938.22;5065492;28;20266;-68
2021/12/05 12:02:11;;;;;;;24.48;13.52;;;;;;;-145.19;100.00;57938.22;5053914;28;20841;-67
2021/12/05 12:04:45;;;;;;;22.85;14.23;;;;;;;-145.19;100.00;57938.22;5057632;28;20472;-68
2021/12/05 12:07:13;;;;;;;27.67;14.23;;;;;;;-145.19;100.00;57938.22;5065183;28;20055;-68
2021/12/05 12:09:40;;;;;;;18.83;12.57;;;;;;;-145.19;100.00;57938.22;5066883;28;20299;-68
2021/12/05 12:12:06;;;;;;;17.60;12.00;;;;;;;-145.19;100.00;57938.22;5068696;28;20266;-68
2021/12/05 12:14:32;;;;;;;16.97;10.93;;;;;;;-145.19;100.00;57938.22;5067198;28;20642;-68
2021/12/05 12:16:58;;;;;;;16.60;11.57;;;;;;;-145.19;100.00;57938.22;5067180;28;20307;-68
2021/12/05 12:19:24;;;;;;;15.03;10.63;;;;;;;-145.19;100.00;57938.22;5066187;28;20049;-68
2021/12/05 12:21:53;;;;;;;16.63;12.40;;;;;;;-145.19;100.00;57938.22;5064295;28;20268;-68
2021/12/05 12:24:18;;;;;;;16.67;11.33;;;;;;;-145.19;100.00;57938.22;5046767;28;20033;-68
2021/12/05 12:26:44;;;;;;;14.73;11.07;;;;;;;-145.19;100.00;57938.22;5012997;28;20270;-68
2021/12/05 12:29:11;;;;;;;16.97;10.57;;;;;;;-145.19;100.00;57938.22;5047153;28;20068;-68
2021/12/05 12:31:40;;;;;;;13.60;10.63;;;;;;;-145.19;100.00;57938.22;5047243;28;20064;-68
2021/12/05 12:34:12;;;;;;;13.97;10.30;;;;;;;-145.19;100.00;57938.22;5047068;28;20278;-68
2021/12/05 12:36:53;;;;;;;15.57;10.20;;;;;;;-145.19;100.00;57938.22;5056183;28;20299;-68
2021/12/05 12:39:19;;;;;;;13.90;10.30;;;;;;;-145.19;100.00;57938.22;5067159;28;20274;-68
2021/12/05 12:42:03;;;;;;;16.10;10.60;;;;;;;-145.19;100.00;57938.22;5064558;28;20284;-68
2021/12/05 12:44:29;;;;;;;14.70;10.17;;;;;;;-145.19;100.00;57938.22;5066484;28;21019;-68
2021/12/05 12:46:57;;;;;;;14.97;10.73;;;;;;;-145.19;100.00;57938.22;5066560;28;20368;-68
2021/12/05 12:49:29;;;;;;;18.20;10.17;;;;;;;-145.19;100.00;57938.22;5065638;28;20273;-68
2021/12/05 12:52:15;;;;;;;15.17;10.17;;;;;;;-145.19;100.00;57938.22;5066563;28;20308;-68
2021/12/05 12:54:49;;;;;;;16.33;11.27;;;;;;;-145.19;100.00;57938.22;5080841;28;20269;-68
2021/12/05 12:57:19;;;;;;;19.13;10.90;;;;;;;-145.19;100.00;57938.22;5066035;28;20059;-68
2021/12/05 13:00:10;;;;;;;16.83;11.57;;;;;;;-145.19;100.00;57938.22;5065982;28;20265;-68
2021/12/05 13:02:57;;;;;;;17.83;11.00;;;;;;;-145.19;100.00;57938.22;5053579;28;20320;-68
2021/12/05 13:11:21;;;;;;;19.97;12.83;;;;;;;-145.19;100.00;57938.22;5080224;28;20339;-68
2021/12/05 13:13:59;;;;;;;21.23;14.47;;;;;;;-145.19;100.00;57938.22;5085845;28;20678;-68
2021/12/05 13:16:29;;;;;;;20.90;14.37;;;;;;;-145.19;100.00;57938.22;5086936;28;20329;-68
2021/12/05 13:19:18;;;;;;;21.53;14.07;;;;;;;-145.19;100.00;57938.22;5068384;28;20277;-68
2021/12/05 13:21:46;;;;;;;20.47;14.30;;;;;;;-145.19;100.00;57938.22;5087337;28;20277;-68
2021/12/05 13:24:44;;;;;;;23.60;14.23;;;;;;;-145.19;100.00;57938.22;5088099;28;20281;-68
2021/12/05 13:27:29;;;;;;;22.33;13.90;;;;;;;-145.19;100.00;57938.22;5087898;28;20606;-68
2021/12/05 13:29:56;;;;;;;18.57;12.20;;;;;;;-145.19;100.00;57938.22;5069461;28;20273;-68
2021/12/05 13:32:26;;;;;;;20.40;13.23;;;;;;;-145.19;100.00;57938.22;5075085;28;20288;-68
2021/12/05 13:35:11;;;;;;;22.00;13.53;;;;;;;-145.19;100.00;57938.22;5067093;28;20354;-68
2021/12/05 13:37:47;;;;;;;19.30;12.30;;;;;;;-145.19;100.00;57938.22;5072135;28;20741;-68
2021/12/05 13:40:26;;;;;;;16.23;11.10;;;;;;;-145.19;100.00;57938.22;5072146;28;20060;-68
2021/12/05 13:43:06;;;;;;;16.10;10.97;;;;;;;-145.19;100.00;57938.22;5066818;28;20501;-68
2021/12/05 13:45:33;;;;;;;14.17;10.33;;;;;;;-145.19;100.00;57938.22;5068927;28;20266;-68
2021/12/05 13:48:00;;;;;;;13.67;9.23;;;;;;;-145.19;100.00;57938.22;5066273;28;20275;-68
2021/12/05 13:50:30;;;;;;;15.87;9.63;;;;;;;-145.19;100.00;57938.22;5067277;28;20282;-68
2021/12/05 13:53:01;;;;;;;16.93;9.50;;;;;;;-145.19;100.00;57938.22;5074972;28;20269;-68
2021/12/05 13:55:46;;;;;;;18.57;9.77;;;;;;;-145.19;100.00;57938.22;5087392;28;20777;-68
2021/12/05 14:01:08;;;;;;;13.73;8.00;;;;;;;-145.19;100.00;57938.22;5087300;28;20279;-68
2021/12/05 14:03:45;;;;;;;10.53;7.57;;;;;;;-145.19;100.00;57938.22;5087859;28;20882;-68
2021/12/05 14:06:38;;;;;;;12.37;8.70;;;;;;;-145.19;100.00;57938.22;5087510;28;20334;-68
2021/12/05 14:09:22;;;;;;;13.70;8.60;;;;;;;-145.19;100.00;57938.22;5087532;28;20284;-68
2021/12/05 14:11:58;;;;;;;10.93;7.87;;;;;;;-145.19;100.00;57938.22;5067371;28;20262;-68
2021/12/05 14:14:30;;;;;;;13.80;8.93;;;;;;;-145.19;100.00;57938.22;5067328;28;20270;-68
2021/12/05 14:16:59;;;;;;;14.30;9.07;;;;;;;-145.19;100.00;57938.22;5067273;28;20273;-67
2021/12/05 14:19:31;;;;;;;14.00;9.17;;;;;;;-145.19;100.00;57938.22;5049305;28;20266;-68
2021/12/05 14:21:59;;;;;;;16.03;8.50;;;;;;;-145.19;100.00;57938.22;5084557;28;20280;-68
2021/12/05 14:24:28;;;;;;;13.37;8.43;;;;;;;-145.19;100.00;57938.22;5086802;28;20296;-68
2021/12/05 14:26:58;;;;;;;14.63;8.40;;;;;;;-145.19;100.00;57938.22;5087012;28;20275;-68
2021/12/05 14:29:27;;;;;;;11.63;7.90;;;;;;;-145.19;100.00;57938.22;5086342;28;20281;-68
2021/12/05 14:32:07;;;;;;;16.80;8.93;;;;;;;-145.19;100.00;57938.22;5085628;28;20285;-68
2021/12/05 14:34:34;;;;;;;14.67;9.60;;;;;;;-145.19;100.00;57938.22;5086314;28;20340;-68
2021/12/05 14:37:05;;;;;;;12.30;7.90;;;;;;;-145.19;100.00;57938.22;5072253;28;20279;-68
2021/12/05 14:39:34;;;;;;;13.00;8.70;;;;;;;-145.19;100.00;57938.22;5066015;28;20355;-68
2021/12/05 14:42:10;;;;;;;11.87;7.73;;;;;;;-145.19;100.00;57938.22;5066004;28;20253;-68
2021/12/05 14:44:36;;;;;;;;;;;;;;;-145.19;100.00;57938.22;5066674;28;20599;-68
2021/12/05 14:47:11;;;;;;;11.13;7.00;;;;;;;-145.19;100.00;57938.22;5067584;28;19970;-68
2021/12/05 14:49:41;;;;;;;12.98;7.80;;;;;;;-145.19;100.00;57938.22;5067647;28;20051;-68
2021/12/05 14:52:18;;;;;;;12.83;8.37;;;;;;;-145.19;100.00;57938.22;5067227;28;20052;-68
2021/12/05 14:54:45;;;;;;;13.00;7.50;;;;;;;-145.19;100.00;57938.22;5085208;28;20310;-68
2021/12/05 14:57:16;;;;;;;15.23;8.23;;;;;;;-145.19;100.00;57938.22;5085492;28;20826;-68
2021/12/05 14:59:45;;;;;;;12.40;8.17;;;;;;;-145.19;100.00;57938.22;5085971;28;20269;-68
2021/12/05 15:02:11;;;;;;;13.10;7.47;;;;;;;-145.19;100.00;57938.22;5085737;28;20292;-68
2021/12/05 15:04:41;;;;;;;17.33;8.70;;;;;;;-145.19;100.00;57938.22;5085923;28;20257;-68
2021/12/05 15:07:08;;;;;;;13.57;8.53;;;;;;;-145.19;100.00;57938.22;5085876;28;20359;-68
2021/12/05 15:09:36;;;;;;;12.37;8.43;;;;;;;-145.19;100.00;57938.22;5085718;28;20306;-68
2021/12/05 15:12:07;;;;;;;13.47;8.40;;;;;;;-145.19;100.00;57938.22;5085504;28;20284;-68
2021/12/05 15:14:34;;;;;;;10.87;7.33;;;;;;;-145.19;100.00;57938.22;5086206;28;20272;-69
2021/12/05 15:17:22;;;;;;;11.60;8.00;;;;;;;-145.19;100.00;57938.22;5086519;28;20284;-69
2021/12/05 15:19:51;;;;;;;13.60;7.83;;;;;;;-145.19;100.00;57938.22;5084558;28;20355;-69
2021/12/05 15:22:18;;;;;;;11.90;7.10;;;;;;;-145.19;100.00;57938.22;5082190;28;20876;-68
2021/12/05 15:24:59;;;;;;;10.83;7.43;;;;;;;-145.19;100.00;57938.22;5084790;28;20381;-69
2021/12/05 15:27:27;;;;;;;10.50;6.83;;;;;;;-145.19;100.00;57938.22;5085606;28;20345;-69
2021/12/05 15:37:08;;;;;;;11.57;8.20;;;;;;;-145.19;100.00;57938.22;5090298;22;20304;-80
2021/12/05 15:39:35;;;;;;;13.30;8.77;;;;;;;-145.19;100.00;57938.22;5031429;28;20634;-68
2021/12/05 15:42:01;;;;;;;15.80;8.97;;;;;;;-145.19;100.00;57938.22;5044602;28;20373;-68
2021/12/05 15:44:28;;;;;;;13.50;9.00;;;;;;;-145.19;100.00;57938.22;5046867;28;20294;-68
2021/12/05 15:47:04;;;;;;;13.97;8.63;;;;;;;-145.19;100.00;57938.22;5048527;28;20124;-68
2021/12/05 15:49:46;;;;;;;13.65;8.85;;;;;;;-145.19;100.00;57938.22;5049429;28;20274;-68
2021/12/05 15:52:11;;;;;;;14.67;8.77;;;;;;;-145.19;100.00;57938.22;5048452;28;20508;-68
2021/12/05 15:54:39;;;;;;;14.67;9.70;;;;;;;-145.19;100.00;57938.22;5061807;28;20323;-68
2021/12/05 15:57:31;;;;;;;12.27;9.20;;;;;;;-145.19;100.00;57938.22;5068541;28;20041;-68
2021/12/05 15:59:59;;;;;;;12.77;8.47;;;;;;;-145.19;100.00;57938.22;5061085;28;20274;-67
2021/12/05 16:02:25;;;;;;;15.00;9.00;;;;;;;-145.19;100.00;57938.22;5050778;28;20364;-68
2021/12/05 16:04:51;;;;;;;13.00;8.80;;;;;;;-145.19;100.00;57938.22;5068656;28;20310;-67
2021/12/05 16:07:18;;;;;;;15.00;9.83;;;;;;;-145.19;100.00;57938.22;5067637;28;20649;-67
2021/12/05 16:09:45;;;;;;;13.83;9.13;;;;;;;-145.19;100.00;57938.22;5068007;28;20634;-67
2021/12/05 16:12:13;;;;;;;15.67;10.03;;;;;;;-145.19;100.00;57938.22;5067975;28;20846;-68
2021/12/05 16:14:44;;;;;;;13.43;9.47;;;;;;;-145.19;100.00;57938.22;5068244;28;20281;-67
2021/12/05 16:17:16;;;;;;;15.07;9.10;;;;;;;-145.19;100.00;57938.22;5068499;28;20262;-68
2021/12/05 16:20:07;;;;;;;14.43;9.97;;;;;;;-145.19;100.00;57938.22;5069333;28;20297;-68
2021/12/05 16:22:50;;;;;;;14.00;10.17;;;;;;;-145.19;100.00;57938.22;5051664;28;20365;-68
2021/12/05 16:25:17;;;;;;;13.83;8.13;;;;;;;-145.19;100.00;57938.22;5069349;28;20304;-67
2021/12/05 16:28:01;;;;;;;10.87;8.40;;;;;;;-145.19;100.00;57938.22;5051102;28;20706;-67
2021/12/05 16:30:31;;;;;;;12.20;8.07;;;;;;;-145.19;100.00;57938.22;5069594;28;20761;-68
2021/12/05 16:32:58;;;;;;;11.87;8.60;;;;;;;-145.19;100.00;57938.22;5068588;28;20262;-68
2021/12/05 16:35:43;;;;;;;13.40;8.83;;;;;;;-145.19;100.00;57938.22;5068857;28;22536;-68
2021/12/05 16:38:43;;;;;;;15.05;10.23;;;;;;;-145.19;100.00;57938.22;5068631;28;20652;-68
2021/12/05 16:41:24;;;;;;;13.63;9.13;;;;;;;-145.19;100.00;57938.22;5068201;28;20036;-67
2021/12/05 16:44:04;;;;;;;13.37;9.67;;;;;;;-145.19;100.00;57938.22;5067577;28;20625;-67
2021/12/05 16:46:58;;;;;;;17.03;11.10;;;;;;;-145.19;100.00;57938.22;5068598;28;20269;-67
2021/12/05 16:49:27;;;;;;;16.30;10.43;;;;;;;-145.19;100.00;57938.22;5064257;28;20261;-67
2021/12/05 16:52:03;;;;;;;15.03;10.13;;;;;;;-145.19;100.00;57938.22;5068843;28;20372;-67
2021/12/05 16:54:34;;;;;;;15.40;10.03;;;;;;;-145.19;100.00;57938.22;5065790;28;20269;-68
2021/12/05 16:57:21;;;;;;;14.97;8.80;;;;;;;-145.19;100.00;57938.22;5067369;28;20273;-67
2021/12/05 16:59:50;;;;;;;14.20;8.53;;;;;;;-145.19;100.00;57938.22;5065816;28;20783;-68
2021/12/05 17:02:22;;;;;;;12.27;8.47;;;;;;;-145.19;100.00;57938.22;5066194;28;20311;-68
2021/12/05 17:05:01;;;;;;;13.57;9.23;;;;;;;-145.19;100.00;57938.22;5067551;28;20296;-67
2021/12/05 17:07:43;;;;;;;17.00;9.63;;;;;;;-145.19;100.00;57938.22;5068083;28;20265;-67
2021/12/05 17:10:09;;;;;;;12.90;8.97;;;;;;;-145.19;100.00;57938.22;5067688;28;20319;-67
2021/12/05 17:12:36;;;;;;;14.07;10.20;;;;;;;-145.19;100.00;57938.22;5063832;28;20281;-67
2021/12/05 17:15:13;;;;;;;16.97;11.50;;;;;;;-145.19;100.00;57938.22;5066150;28;20080;-68
2021/12/05 17:17:40;;;;;;;15.60;10.13;;;;;;;-145.19;100.00;57938.22;5066482;28;20277;-68
2021/12/05 17:20:19;;;;;;;16.17;11.07;;;;;;;-145.19;100.00;57938.22;5069477;28;20364;-68
2021/12/05 17:23:14;;;;;;;15.43;10.07;;;;;;;-145.19;100.00;57938.22;5066881;28;20691;-68